aviador You're here:

KHFF Decoded Metar

HOFFMAN/MACKALL in NC, USA
Report Time2017-07-23 07:56:00
UTC Time2017-07-23 08:31:37
Flight Rules vfr VFR
Wind220° at 08 kt
W.Decomp.*RWY 22: 8.0 kt HW 0.8 kt RCW
RWY 29: 3.5 kt HW 7.2 kt LCW
RWY 16: 3.3 kt HW 7.3 kt RCW
W.Rank220° ranks 11
Current wind is above 220° avg. (6.5)
Visibility9999 m
Phenomena:N/A
Clouds:N/A
Expected CloudBase > 1,200 ft AGL from Temp-Dew spread
CeilingNone
Temp26°C (ISA +12)
Dew Point23°C (84% RH)
QNH1012 hPa
Density Alt2,139 ft
Elevation377 ft
Report Wrong Elevation
Raw Report
KHFF 230756Z AUTO 22008KT 10SM CLR 26/23 A2988 RMK AO2 SLP129
T02580230 $=

Extra information for KHFF:More info

Metar Taf Metar & Taf Last 4 Metars F.Rules Stats Wind Profile Meteogram Temp Stats Airport Information Weather charts Add Link Nearby VenuesMetar ALERT Operation Metar Decoded Social comments

AIRNAV info for KHFF